sensor_id;sensor_type;location;lat;lon;timestamp;pressure;altitude;pressure_sealevel;temperature;humidity
79198;BME280;68628;48.714;9.472;2023-04-07T00:01:43;98102.59;;;6.32;76.40
79198;BME280;68628;48.714;9.472;2023-04-07T00:04:12;98106.47;;;6.28;77.07
79198;BME280;68628;48.714;9.472;2023-04-07T00:06:43;98104.00;;;6.27;75.86
79198;BME280;68628;48.714;9.472;2023-04-07T00:09:09;98098.94;;;6.25;75.96
79198;BME280;68628;48.714;9.472;2023-04-07T00:11:35;98107.25;;;6.21;76.58
79198;BME280;68628;48.714;9.472;2023-04-07T00:14:02;98104.03;;;6.09;75.68
79198;BME280;68628;48.714;9.472;2023-04-07T00:16:27;98099.44;;;6.11;76.89
79198;BME280;68628;48.714;9.472;2023-04-07T00:18:53;98091.44;;;6.12;75.91
79198;BME280;68628;48.714;9.472;2023-04-07T00:21:19;98095.28;;;6.18;76.59
79198;BME280;68628;48.714;9.472;2023-04-07T00:23:45;98093.84;;;6.06;76.78
79198;BME280;68628;48.714;9.472;2023-04-07T00:26:11;98094.66;;;6.24;76.45
79198;BME280;68628;48.714;9.472;2023-04-07T00:28:37;98089.38;;;6.34;76.78
79198;BME280;68628;48.714;9.472;2023-04-07T00:31:10;98088.09;;;6.20;77.12
79198;BME280;68628;48.714;9.472;2023-04-07T00:33:39;98083.31;;;6.15;76.88
79198;BME280;68628;48.714;9.472;2023-04-07T00:36:04;98080.16;;;6.12;77.41
79198;BME280;68628;48.714;9.472;2023-04-07T00:38:30;98080.03;;;6.31;76.04
79198;BME280;68628;48.714;9.472;2023-04-07T00:40:57;98071.09;;;6.24;75.88
79198;BME280;68628;48.714;9.472;2023-04-07T00:43:26;98063.88;;;6.18;77.19
79198;BME280;68628;48.714;9.472;2023-04-07T00:45:52;98066.19;;;6.21;77.30
79198;BME280;68628;48.714;9.472;2023-04-07T00:48:19;98067.00;;;6.22;77.35
79198;BME280;68628;48.714;9.472;2023-04-07T00:50:45;98058.22;;;6.05;78.20
79198;BME280;68628;48.714;9.472;2023-04-07T00:53:11;98052.94;;;5.87;78.35
79198;BME280;68628;48.714;9.472;2023-04-07T00:55:37;98042.31;;;5.88;79.06
79198;BME280;68628;48.714;9.472;2023-04-07T00:58:03;98045.91;;;5.87;79.34
79198;BME280;68628;48.714;9.472;2023-04-07T01:00:32;98044.34;;;5.76;79.61
79198;BME280;68628;48.714;9.472;2023-04-07T01:03:08;98039.78;;;5.96;78.15
79198;BME280;68628;48.714;9.472;2023-04-07T01:05:54;98041.88;;;5.93;78.92
79198;BME280;68628;48.714;9.472;2023-04-07T01:08:45;98041.88;;;5.93;79.17
79198;BME280;68628;48.714;9.472;2023-04-07T01:11:24;98038.75;;;5.89;78.71
79198;BME280;68628;48.714;9.472;2023-04-07T01:13:56;98036.94;;;5.90;79.72
79198;BME280;68628;48.714;9.472;2023-04-07T01:16:38;98028.13;;;5.91;79.81
79198;BME280;68628;48.714;9.472;2023-04-07T01:19:17;98025.97;;;5.86;79.38
79198;BME280;68628;48.714;9.472;2023-04-07T01:22:16;98028.09;;;5.73;80.48
79198;BME280;68628;48.714;9.472;2023-04-07T01:30:30;98011.75;;;5.89;80.47
79198;BME280;68628;48.714;9.472;2023-04-07T01:32:59;98009.59;;;5.84;80.12
79198;BME280;68628;48.714;9.472;2023-04-07T01:35:32;98007.34;;;5.89;80.04
79198;BME280;68628;48.714;9.472;2023-04-07T01:38:02;98007.72;;;5.94;79.86
79198;BME280;68628;48.714;9.472;2023-04-07T01:40:32;97997.13;;;5.78;79.47
79198;BME280;68628;48.714;9.472;2023-04-07T01:43:00;98005.28;;;5.75;80.47
79198;BME280;68628;48.714;9.472;2023-04-07T01:45:28;98003.09;;;5.88;79.74
79198;BME280;68628;48.714;9.472;2023-04-07T01:47:56;98004.00;;;5.79;80.12
79198;BME280;68628;48.714;9.472;2023-04-07T01:50:25;97990.97;;;5.87;80.15
79198;BME280;68628;48.714;9.472;2023-04-07T01:52:52;97989.38;;;5.86;79.80
79198;BME280;68628;48.714;9.472;2023-04-07T01:55:18;97989.97;;;5.80;80.58
79198;BME280;68628;48.714;9.472;2023-04-07T01:57:44;97993.31;;;5.72;80.60
79198;BME280;68628;48.714;9.472;2023-04-07T02:00:10;97982.97;;;5.89;80.06
79198;BME280;68628;48.714;9.472;2023-04-07T02:02:41;97989.50;;;5.84;79.59
79198;BME280;68628;48.714;9.472;2023-04-07T02:05:14;97987.41;;;5.88;80.29
79198;BME280;68628;48.714;9.472;2023-04-07T02:07:58;97986.00;;;5.76;80.14
79198;BME280;68628;48.714;9.472;2023-04-07T02:10:28;97990.69;;;5.72;81.05
79198;BME280;68628;48.714;9.472;2023-04-07T02:12:59;97983.44;;;5.84;80.22
79198;BME280;68628;48.714;9.472;2023-04-07T02:15:29;97987.34;;;5.80;80.58
79198;BME280;68628;48.714;9.472;2023-04-07T02:17:58;97983.88;;;5.79;80.48
79198;BME280;68628;48.714;9.472;2023-04-07T02:20:27;97982.53;;;5.75;80.77
79198;BME280;68628;48.714;9.472;2023-04-07T02:22:55;97979.03;;;5.84;79.68
79198;BME280;68628;48.714;9.472;2023-04-07T02:25:23;97975.28;;;5.87;80.07
79198;BME280;68628;48.714;9.472;2023-04-07T02:27:55;97968.66;;;5.93;79.54
79198;BME280;68628;48.714;9.472;2023-04-07T02:30:22;97967.44;;;5.87;79.73
79198;BME280;68628;48.714;9.472;2023-04-07T02:32:48;97969.25;;;5.87;79.96
79198;BME280;68628;48.714;9.472;2023-04-07T02:35:15;97957.97;;;5.86;79.36
79198;BME280;68628;48.714;9.472;2023-04-07T02:37:45;97958.56;;;5.80;79.37
79198;BME280;68628;48.714;9.472;2023-04-07T02:40:12;97957.25;;;5.76;79.13
79198;BME280;68628;48.714;9.472;2023-04-07T02:42:38;97962.59;;;5.92;78.71
79198;BME280;68628;48.714;9.472;2023-04-07T02:45:05;97960.44;;;5.88;79.48
79198;BME280;68628;48.714;9.472;2023-04-07T02:47:32;97955.28;;;5.78;78.91
79198;BME280;68628;48.714;9.472;2023-04-07T02:49:58;97955.06;;;5.89;79.60
79198;BME280;68628;48.714;9.472;2023-04-07T02:52:24;97949.50;;;5.92;79.19
79198;BME280;68628;48.714;9.472;2023-04-07T02:54:50;97945.63;;;5.96;78.49
79198;BME280;68628;48.714;9.472;2023-04-07T02:57:15;97953.25;;;6.08;77.93
79198;BME280;68628;48.714;9.472;2023-04-07T02:59:41;97952.88;;;6.21;77.77
79198;BME280;68628;48.714;9.472;2023-04-07T03:02:07;97946.59;;;6.13;78.86
79198;BME280;68628;48.714;9.472;2023-04-07T03:04:33;97940.59;;;6.21;77.61
79198;BME280;68628;48.714;9.472;2023-04-07T03:06:58;97946.22;;;6.08;78.33
79198;BME280;68628;48.714;9.472;2023-04-07T03:09:24;97945.41;;;6.08;77.94
79198;BME280;68628;48.714;9.472;2023-04-07T03:11:50;97931.09;;;6.20;77.49
79198;BME280;68628;48.714;9.472;2023-04-07T03:14:16;97938.78;;;6.22;77.61
79198;BME280;68628;48.714;9.472;2023-04-07T03:16:41;97940.97;;;6.26;77.55
79198;BME280;68628;48.714;9.472;2023-04-07T03:19:08;97926.53;;;6.22;77.73
79198;BME280;68628;48.714;9.472;2023-04-07T03:21:35;97926.50;;;6.14;77.53
79198;BME280;68628;48.714;9.472;2023-04-07T03:24:02;97919.41;;;6.32;77.41
79198;BME280;68628;48.714;9.472;2023-04-07T03:26:27;97917.38;;;6.18;77.30
79198;BME280;68628;48.714;9.472;2023-04-07T03:28:53;97922.47;;;6.28;78.51
79198;BME280;68628;48.714;9.472;2023-04-07T03:31:19;97926.97;;;6.44;78.53
79198;BME280;68628;48.714;9.472;2023-04-07T03:33:44;97931.22;;;6.37;79.68
79198;BME280;68628;48.714;9.472;2023-04-07T03:36:10;97929.59;;;6.44;78.92
79198;BME280;68628;48.714;9.472;2023-04-07T03:38:35;97930.00;;;6.57;78.91
79198;BME280;68628;48.714;9.472;2023-04-07T03:41:01;97920.81;;;6.53;79.31
79198;BME280;68628;48.714;9.472;2023-04-07T03:43:26;97925.03;;;6.46;78.96
79198;BME280;68628;48.714;9.472;2023-04-07T03:45:53;97914.94;;;6.51;79.29
79198;BME280;68628;48.714;9.472;2023-04-07T03:48:18;97914.59;;;6.54;79.54
79198;BME280;68628;48.714;9.472;2023-04-07T03:50:45;97917.69;;;6.49;79.64
79198;BME280;68628;48.714;9.472;2023-04-07T03:53:11;97922.06;;;6.41;80.54
79198;BME280;68628;48.714;9.472;2023-04-07T03:55:39;97921.22;;;6.40;80.93
79198;BME280;68628;48.714;9.472;2023-04-07T03:58:06;97925.28;;;6.34;82.52
79198;BME280;68628;48.714;9.472;2023-04-07T04:00:31;97917.44;;;6.34;82.27
79198;BME280;68628;48.714;9.472;2023-04-07T04:02:58;97918.75;;;6.30;80.68
79198;BME280;68628;48.714;9.472;2023-04-07T04:05:27;97914.44;;;6.21;80.59
79198;BME280;68628;48.714;9.472;2023-04-07T04:07:52;97912.91;;;6.10;80.92
79198;BME280;68628;48.714;9.472;2023-04-07T04:10:19;97915.16;;;5.87;82.02
79198;BME280;68628;48.714;9.472;2023-04-07T04:12:46;97909.09;;;6.05;81.57
79198;BME280;68628;48.714;9.472;2023-04-07T04:15:13;97900.06;;;5.99;81.59
79198;BME280;68628;48.714;9.472;2023-04-07T04:17:40;97907.66;;;6.10;81.54
79198;BME280;68628;48.714;9.472;2023-04-07T04:20:06;97902.63;;;6.17;80.68
79198;BME280;68628;48.714;9.472;2023-04-07T04:22:33;97902.47;;;6.19;81.02
79198;BME280;68628;48.714;9.472;2023-04-07T04:25:00;97904.91;;;6.12;80.91
79198;BME280;68628;48.714;9.472;2023-04-07T04:27:26;97897.66;;;6.06;82.21
79198;BME280;68628;48.714;9.472;2023-04-07T04:29:52;97905.38;;;5.89;81.92
79198;BME280;68628;48.714;9.472;2023-04-07T04:32:18;97899.63;;;6.04;82.28
79198;BME280;68628;48.714;9.472;2023-04-07T04:34:44;97900.59;;;6.03;81.39
79198;BME280;68628;48.714;9.472;2023-04-07T04:37:09;97895.72;;;6.08;81.91
79198;BME280;68628;48.714;9.472;2023-04-07T04:39:35;97903.41;;;5.91;82.62
79198;BME280;68628;48.714;9.472;2023-04-07T04:42:02;97892.59;;;5.86;82.39
79198;BME280;68628;48.714;9.472;2023-04-07T04:44:29;97902.53;;;5.82;82.26
79198;BME280;68628;48.714;9.472;2023-04-07T04:46:55;97896.31;;;6.02;81.90
79198;BME280;68628;48.714;9.472;2023-04-07T04:49:21;97896.41;;;5.92;82.68
79198;BME280;68628;48.714;9.472;2023-04-07T04:51:47;97899.97;;;5.91;82.25
79198;BME280;68628;48.714;9.472;2023-04-07T04:54:13;97899.78;;;5.84;81.58
79198;BME280;68628;48.714;9.472;2023-04-07T04:56:38;97890.81;;;5.87;81.74
79198;BME280;68628;48.714;9.472;2023-04-07T04:59:04;97893.66;;;5.75;81.05
79198;BME280;68628;48.714;9.472;2023-04-07T05:01:30;97895.22;;;5.86;82.71
79198;BME280;68628;48.714;9.472;2023-04-07T05:03:59;97899.47;;;5.87;81.55
79198;BME280;68628;48.714;9.472;2023-04-07T05:06:25;97894.22;;;5.87;81.58
79198;BME280;68628;48.714;9.472;2023-04-07T05:08:52;97897.47;;;5.81;81.67
79198;BME280;68628;48.714;9.472;2023-04-07T05:11:17;97896.16;;;6.03;80.24
79198;BME280;68628;48.714;9.472;2023-04-07T05:13:43;97895.56;;;6.09;81.16
79198;BME280;68628;48.714;9.472;2023-04-07T05:16:09;97899.13;;;6.08;81.98
79198;BME280;68628;48.714;9.472;2023-04-07T05:18:35;97899.00;;;5.92;83.38
79198;BME280;68628;48.714;9.472;2023-04-07T05:21:00;97898.75;;;5.77;83.71
79198;BME280;68628;48.714;9.472;2023-04-07T05:23:26;97899.66;;;5.67;83.80
79198;BME280;68628;48.714;9.472;2023-04-07T05:25:52;97889.16;;;6.04;82.70
79198;BME280;68628;48.714;9.472;2023-04-07T05:28:17;97890.53;;;5.72;84.04
79198;BME280;68628;48.714;9.472;2023-04-07T05:30:43;97888.38;;;5.67;85.08
79198;BME280;68628;48.714;9.472;2023-04-07T05:33:08;97887.88;;;5.90;84.18
79198;BME280;68628;48.714;9.472;2023-04-07T05:35:35;97891.00;;;5.93;84.52
79198;BME280;68628;48.714;9.472;2023-04-07T05:38:00;97888.63;;;6.00;84.23
79198;BME280;68628;48.714;9.472;2023-04-07T05:40:27;97895.72;;;6.08;83.12
79198;BME280;68628;48.714;9.472;2023-04-07T05:42:54;97889.88;;;6.14;83.03
79198;BME280;68628;48.714;9.472;2023-04-07T05:45:20;97892.06;;;6.00;83.25
79198;BME280;68628;48.714;9.472;2023-04-07T05:47:45;97902.13;;;6.13;81.94
79198;BME280;68628;48.714;9.472;2023-04-07T05:50:14;97903.81;;;6.23;82.25
79198;BME280;68628;48.714;9.472;2023-04-07T05:52:41;97896.22;;;6.11;84.11
79198;BME280;68628;48.714;9.472;2023-04-07T05:55:09;97895.25;;;6.12;82.92
79198;BME280;68628;48.714;9.472;2023-04-07T05:57:37;97901.03;;;6.24;81.33
79198;BME280;68628;48.714;9.472;2023-04-07T06:00:03;97909.72;;;6.25;82.08
79198;BME280;68628;48.714;9.472;2023-04-07T06:02:38;97902.84;;;6.24;83.31
79198;BME280;68628;48.714;9.472;2023-04-07T06:05:06;97908.78;;;6.34;83.42
79198;BME280;68628;48.714;9.472;2023-04-07T06:07:32;97909.25;;;6.29;84.35
79198;BME280;68628;48.714;9.472;2023-04-07T06:09:58;97913.06;;;6.35;83.30
79198;BME280;68628;48.714;9.472;2023-04-07T06:12:23;97912.81;;;6.28;83.23
79198;BME280;68628;48.714;9.472;2023-04-07T06:15:01;97912.81;;;6.28;81.96
79198;BME280;68628;48.714;9.472;2023-04-07T06:17:26;97918.06;;;6.28;82.18
79198;BME280;68628;48.714;9.472;2023-04-07T06:19:52;97907.47;;;6.30;83.17
79198;BME280;68628;48.714;9.472;2023-04-07T06:22:18;97918.06;;;6.28;83.29
79198;BME280;68628;48.714;9.472;2023-04-07T06:24:43;97914.94;;;6.25;81.70
79198;BME280;68628;48.714;9.472;2023-04-07T06:27:09;97914.28;;;6.23;81.56
79198;BME280;68628;48.714;9.472;2023-04-07T06:29:35;97910.06;;;6.30;81.20
79198;BME280;68628;48.714;9.472;2023-04-07T06:32:03;97906.34;;;6.32;79.82
79198;BME280;68628;48.714;9.472;2023-04-07T06:34:31;97912.31;;;6.51;79.34
79198;BME280;68628;48.714;9.472;2023-04-07T06:37:03;97906.94;;;6.61;79.42
79198;BME280;68628;48.714;9.472;2023-04-07T06:39:36;97909.03;;;6.57;78.94
79198;BME280;68628;48.714;9.472;2023-04-07T06:42:10;97914.38;;;6.74;79.29
79198;BME280;68628;48.714;9.472;2023-04-07T06:44:41;97899.81;;;6.79;78.88
79198;BME280;68628;48.714;9.472;2023-04-07T06:47:13;97894.00;;;7.10;78.15
79198;BME280;68628;48.714;9.472;2023-04-07T06:49:39;97900.53;;;7.06;78.13
79198;BME280;68628;48.714;9.472;2023-04-07T06:52:05;97901.03;;;7.10;76.61
79198;BME280;68628;48.714;9.472;2023-04-07T06:54:31;97902.75;;;7.52;76.06
79198;BME280;68628;48.714;9.472;2023-04-07T06:56:56;97899.47;;;7.58;75.56
79198;BME280;68628;48.714;9.472;2023-04-07T06:59:22;97899.78;;;7.47;76.16
79198;BME280;68628;48.714;9.472;2023-04-07T07:01:48;97898.63;;;7.58;75.21
79198;BME280;68628;48.714;9.472;2023-04-07T07:04:35;97893.56;;;7.64;74.11
79198;BME280;68628;48.714;9.472;2023-04-07T07:07:02;97894.22;;;7.91;75.26
79198;BME280;68628;48.714;9.472;2023-04-07T07:09:29;97892.53;;;8.07;74.93
79198;BME280;68628;48.714;9.472;2023-04-07T07:11:56;97889.94;;;7.98;73.67
79198;BME280;68628;48.714;9.472;2023-04-07T07:14:22;97893.53;;;7.97;76.50
79198;BME280;68628;48.714;9.472;2023-04-07T07:16:48;97902.31;;;8.29;75.14
79198;BME280;68628;48.714;9.472;2023-04-07T07:19:13;97894.09;;;8.41;74.63
79198;BME280;68628;48.714;9.472;2023-04-07T07:21:39;97901.06;;;8.09;75.39
79198;BME280;68628;48.714;9.472;2023-04-07T07:24:08;97895.03;;;7.92;76.55
79198;BME280;68628;48.714;9.472;2023-04-07T07:26:34;97888.75;;;8.17;75.70
79198;BME280;68628;48.714;9.472;2023-04-07T07:29:00;97890.22;;;8.20;75.86
79198;BME280;68628;48.714;9.472;2023-04-07T07:31:26;97887.34;;;8.63;73.28
79198;BME280;68628;48.714;9.472;2023-04-07T07:33:54;97888.41;;;8.85;71.99
79198;BME280;68628;48.714;9.472;2023-04-07T07:36:20;97888.28;;;9.33;70.64
79198;BME280;68628;48.714;9.472;2023-04-07T07:38:45;97890.97;;;9.86;67.99
79198;BME280;68628;48.714;9.472;2023-04-07T07:41:11;97897.47;;;10.28;67.05
79198;BME280;68628;48.714;9.472;2023-04-07T07:43:36;97897.69;;;10.72;67.87
79198;BME280;68628;48.714;9.472;2023-04-07T07:46:03;97890.03;;;11.13;63.14
79198;BME280;68628;48.714;9.472;2023-04-07T07:48:31;97882.84;;;11.22;60.90
79198;BME280;68628;48.714;9.472;2023-04-07T07:51:00;97893.97;;;11.89;61.26
79198;BME280;68628;48.714;9.472;2023-04-07T07:53:28;97896.25;;;12.14;59.37
79198;BME280;68628;48.714;9.472;2023-04-07T07:55:56;97900.13;;;13.02;55.35
79198;BME280;68628;48.714;9.472;2023-04-07T07:58:22;97896.72;;;12.66;53.94
79198;BME280;68628;48.714;9.472;2023-04-07T08:00:58;97895.53;;;11.77;55.91
79198;BME280;68628;48.714;9.472;2023-04-07T08:03:24;97902.94;;;13.48;51.21
79198;BME280;68628;48.714;9.472;2023-04-07T08:05:53;97903.38;;;13.52;53.51
79198;BME280;68628;48.714;9.472;2023-04-07T08:08:40;97903.38;;;13.99;51.64
79198;BME280;68628;48.714;9.472;2023-04-07T08:11:05;97896.16;;;14.66;51.41
79198;BME280;68628;48.714;9.472;2023-04-07T08:13:47;97900.09;;;13.50;51.46
79198;BME280;68628;48.714;9.472;2023-04-07T08:16:21;97900.13;;;14.10;51.06
79198;BME280;68628;48.714;9.472;2023-04-07T08:19:01;97897.28;;;14.05;50.98
79198;BME280;68628;48.714;9.472;2023-04-07T08:21:52;97893.94;;;14.50;49.70
79198;BME280;68628;48.714;9.472;2023-04-07T08:24:29;97890.63;;;15.20;48.80
79198;BME280;68628;48.714;9.472;2023-04-07T08:26:55;97896.16;;;15.12;47.31
79198;BME280;68628;48.714;9.472;2023-04-07T08:29:25;97901.75;;;13.91;50.60
79198;BME280;68628;48.714;9.472;2023-04-07T08:31:59;97901.19;;;11.95;54.11
79198;BME280;68628;48.714;9.472;2023-04-07T08:34:25;97899.88;;;13.58;50.96
79198;BME280;68628;48.714;9.472;2023-04-07T08:36:50;97890.66;;;15.07;47.97
79198;BME280;68628;48.714;9.472;2023-04-07T08:39:16;97886.25;;;14.94;48.91
79198;BME280;68628;48.714;9.472;2023-04-07T08:41:43;97887.28;;;15.31;47.91
79198;BME280;68628;48.714;9.472;2023-04-07T08:44:10;97897.97;;;15.50;46.39
79198;BME280;68628;48.714;9.472;2023-04-07T08:46:39;97895.34;;;14.46;47.50
79198;BME280;68628;48.714;9.472;2023-04-07T08:49:10;97896.91;;;15.26;47.05
79198;BME280;68628;48.714;9.472;2023-04-07T08:51:44;97893.25;;;13.00;50.84
79198;BME280;68628;48.714;9.472;2023-04-07T08:54:16;97897.31;;;13.03;52.09
79198;BME280;68628;48.714;9.472;2023-04-07T08:56:46;97901.09;;;12.87;53.59
79198;BME280;68628;48.714;9.472;2023-04-07T08:59:14;97899.59;;;13.20;52.77
79198;BME280;68628;48.714;9.472;2023-04-07T09:01:43;97908.38;;;12.72;52.21
79198;BME280;68628;48.714;9.472;2023-04-07T09:04:10;97914.63;;;12.00;53.40
79198;BME280;68628;48.714;9.472;2023-04-07T09:06:36;97902.22;;;12.64;52.29
79198;BME280;68628;48.714;9.472;2023-04-07T09:09:03;97905.59;;;13.42;51.83
79198;BME280;68628;48.714;9.472;2023-04-07T09:11:38;97909.47;;;14.33;49.84
79198;BME280;68628;48.714;9.472;2023-04-07T09:14:05;97905.41;;;13.63;52.01
79198;BME280;68628;48.714;9.472;2023-04-07T09:16:31;97910.00;;;12.73;52.54
79198;BME280;68628;48.714;9.472;2023-04-07T09:18:58;97910.50;;;12.96;51.22
79198;BME280;68628;48.714;9.472;2023-04-07T09:21:24;97908.84;;;12.89;51.70
79198;BME280;68628;48.714;9.472;2023-04-07T09:23:51;97904.28;;;12.69;52.63
79198;BME280;68628;48.714;9.472;2023-04-07T09:26:18;97911.56;;;12.25;53.19
79198;BME280;68628;48.714;9.472;2023-04-07T09:28:57;97900.06;;;12.11;53.74
79198;BME280;68628;48.714;9.472;2023-04-07T09:31:47;97913.88;;;11.63;56.18
79198;BME280;68628;48.714;9.472;2023-04-07T09:34:30;97913.97;;;12.20;56.10
79198;BME280;68628;48.714;9.472;2023-04-07T09:36:58;97910.03;;;12.44;55.33
79198;BME280;68628;48.714;9.472;2023-04-07T09:39:24;97914.31;;;12.45;54.36
79198;BME280;68628;48.714;9.472;2023-04-07T09:41:51;97916.59;;;12.20;54.17
79198;BME280;68628;48.714;9.472;2023-04-07T09:44:18;97909.13;;;12.24;54.97
79198;BME280;68628;48.714;9.472;2023-04-07T09:47:02;97910.31;;;12.21;54.54
79198;BME280;68628;48.714;9.472;2023-04-07T09:49:28;97909.34;;;12.29;54.97
79198;BME280;68628;48.714;9.472;2023-04-07T09:51:59;97920.09;;;12.27;54.66
79198;BME280;68628;48.714;9.472;2023-04-07T09:54:36;97913.84;;;12.35;54.95
79198;BME280;68628;48.714;9.472;2023-04-07T09:57:04;97918.81;;;12.16;54.52
79198;BME280;68628;48.714;9.472;2023-04-07T09:59:33;97911.56;;;12.25;54.34
79198;BME280;68628;48.714;9.472;2023-04-07T10:02:00;97911.59;;;12.32;54.32
79198;BME280;68628;48.714;9.472;2023-04-07T10:04:27;97910.78;;;12.03;54.88
79198;BME280;68628;48.714;9.472;2023-04-07T10:06:54;97913.59;;;11.95;53.63
79198;BME280;68628;48.714;9.472;2023-04-07T10:09:23;97909.69;;;12.19;54.74
79198;BME280;68628;48.714;9.472;2023-04-07T10:11:51;97914.78;;;12.56;53.94
79198;BME280;68628;48.714;9.472;2023-04-07T10:14:19;97910.63;;;12.40;54.60
79198;BME280;68628;48.714;9.472;2023-04-07T10:16:48;97917.59;;;12.89;52.71
79198;BME280;68628;48.714;9.472;2023-04-07T10:19:18;97904.41;;;12.96;51.97
79198;BME280;68628;48.714;9.472;2023-04-07T10:21:52;97902.72;;;12.88;52.17
79198;BME280;68628;48.714;9.472;2023-04-07T10:27:24;97906.31;;;12.67;51.71
79198;BME280;68628;48.714;9.472;2023-04-07T10:29:56;97906.50;;;13.14;51.98
79198;BME280;68628;48.714;9.472;2023-04-07T10:32:23;97908.50;;;13.12;51.91
79198;BME280;68628;48.714;9.472;2023-04-07T10:37:15;97908.66;;;13.59;51.82
79198;BME280;68628;48.714;9.472;2023-04-07T10:39:44;97909.66;;;13.44;50.59
79198;BME280;68628;48.714;9.472;2023-04-07T10:45:07;97904.38;;;13.51;50.68
79198;BME280;68628;48.714;9.472;2023-04-07T10:47:34;97900.94;;;13.84;51.94
79198;BME280;68628;48.714;9.472;2023-04-07T10:50:22;97903.69;;;14.49;49.58
79198;BME280;68628;48.714;9.472;2023-04-07T10:53:03;97910.63;;;15.16;47.57
79198;BME280;68628;48.714;9.472;2023-04-07T10:58:25;97907.56;;;14.74;47.31
79198;BME280;68628;48.714;9.472;2023-04-07T11:03:26;97915.78;;;14.32;49.52
79198;BME280;68628;48.714;9.472;2023-04-07T11:06:11;97908.84;;;14.24;50.34
79198;BME280;68628;48.714;9.472;2023-04-07T11:08:47;97913.16;;;14.19;50.07
79198;BME280;68628;48.714;9.472;2023-04-07T11:11:20;97913.94;;;14.19;49.35
79198;BME280;68628;48.714;9.472;2023-04-07T11:14:01;97906.25;;;13.84;50.56
79198;BME280;68628;48.714;9.472;2023-04-07T11:16:39;97901.53;;;13.79;49.87
79198;BME280;68628;48.714;9.472;2023-04-07T11:19:07;97909.66;;;13.51;51.37
79198;BME280;68628;48.714;9.472;2023-04-07T11:21:33;97912.94;;;13.66;51.71
79198;BME280;68628;48.714;9.472;2023-04-07T11:23:59;97909.03;;;13.49;52.12
79198;BME280;68628;48.714;9.472;2023-04-07T11:26:25;97908.25;;;13.69;52.23
79198;BME280;68628;48.714;9.472;2023-04-07T11:28:53;97913.31;;;12.88;53.14
79198;BME280;68628;48.714;9.472;2023-04-07T11:31:28;97905.94;;;12.70;52.95
79198;BME280;68628;48.714;9.472;2023-04-07T11:33:58;97907.84;;;12.96;52.79
79198;BME280;68628;48.714;9.472;2023-04-07T11:36:39;97910.19;;;13.26;53.44
79198;BME280;68628;48.714;9.472;2023-04-07T11:39:17;97903.31;;;13.39;53.01
79198;BME280;68628;48.714;9.472;2023-04-07T11:41:49;97901.94;;;13.70;52.24
79198;BME280;68628;48.714;9.472;2023-04-07T11:44:16;97905.59;;;13.62;51.13
79198;BME280;68628;48.714;9.472;2023-04-07T11:46:58;97910.28;;;13.66;50.45
79198;BME280;68628;48.714;9.472;2023-04-07T11:49:26;97900.72;;;13.92;50.36
79198;BME280;68628;48.714;9.472;2023-04-07T11:52:05;97904.38;;;13.71;50.83
79198;BME280;68628;48.714;9.472;2023-04-07T11:54:42;97906.03;;;13.99;51.14
79198;BME280;68628;48.714;9.472;2023-04-07T11:57:23;97901.75;;;13.98;50.75
79198;BME280;68628;48.714;9.472;2023-04-07T12:00:10;97902.97;;;13.62;51.40
79198;BME280;68628;48.714;9.472;2023-04-07T12:02:37;97900.94;;;13.71;51.50
79198;BME280;68628;48.714;9.472;2023-04-07T12:05:04;97904.59;;;13.90;51.46
79198;BME280;68628;48.714;9.472;2023-04-07T12:07:30;97898.88;;;13.79;49.86
79198;BME280;68628;48.714;9.472;2023-04-07T12:09:57;97898.88;;;13.79;50.75
79198;BME280;68628;48.714;9.472;2023-04-07T12:12:29;97900.88;;;13.37;52.05
79198;BME280;68628;48.714;9.472;2023-04-07T12:14:57;97903.38;;;13.59;49.81
79198;BME280;68628;48.714;9.472;2023-04-07T12:17:25;97903.38;;;13.65;48.85
79198;BME280;68628;48.714;9.472;2023-04-07T12:19:52;97906.22;;;13.71;48.44
79198;BME280;68628;48.714;9.472;2023-04-07T12:22:18;97905.59;;;13.89;49.16
79198;BME280;68628;48.714;9.472;2023-04-07T12:24:47;97897.13;;;13.11;53.59
79198;BME280;68628;48.714;9.472;2023-04-07T12:27:12;97906.22;;;13.91;49.42
79198;BME280;68628;48.714;9.472;2023-04-07T12:29:38;97899.69;;;13.66;48.77
79198;BME280;68628;48.714;9.472;2023-04-07T12:32:04;97907.25;;;13.96;48.47
79198;BME280;68628;48.714;9.472;2023-04-07T12:34:33;97905.59;;;13.89;48.76
79198;BME280;68628;48.714;9.472;2023-04-07T12:37:01;97913.38;;;14.10;47.60
79198;BME280;68628;48.714;9.472;2023-04-07T12:39:27;97915.19;;;13.83;48.81
79198;BME280;68628;48.714;9.472;2023-04-07T12:41:53;97919.28;;;13.86;49.51
79198;BME280;68628;48.714;9.472;2023-04-07T12:44:19;97907.03;;;13.71;46.90
79198;BME280;68628;48.714;9.472;2023-04-07T12:46:44;97912.22;;;13.24;49.06
79198;BME280;68628;48.714;9.472;2023-04-07T12:49:10;97907.84;;;13.72;48.13
79198;BME280;68628;48.714;9.472;2023-04-07T12:51:36;97917.03;;;14.09;47.04
79198;BME280;68628;48.714;9.472;2023-04-07T12:54:04;97910.09;;;13.95;46.66
79198;BME280;68628;48.714;9.472;2023-04-07T12:56:29;97911.28;;;14.32;47.08
79198;BME280;68628;48.714;9.472;2023-04-07T12:58:55;97913.16;;;14.05;46.83
79198;BME280;68628;48.714;9.472;2023-04-07T13:01:21;97905.81;;;13.67;48.92
79198;BME280;68628;48.714;9.472;2023-04-07T13:03:47;97908.88;;;12.95;48.23
79198;BME280;68628;48.714;9.472;2023-04-07T13:06:12;97910.56;;;12.61;48.88
79198;BME280;68628;48.714;9.472;2023-04-07T13:08:39;97911.50;;;12.89;48.57
79198;BME280;68628;48.714;9.472;2023-04-07T13:11:05;97917.97;;;12.79;48.33
79198;BME280;68628;48.714;9.472;2023-04-07T13:13:31;97914.41;;;13.00;48.56
79198;BME280;68628;48.714;9.472;2023-04-07T13:15:58;97921.34;;;13.15;49.52
79198;BME280;68628;48.714;9.472;2023-04-07T13:18:24;97912.97;;;12.98;51.75
79198;BME280;68628;48.714;9.472;2023-04-07T13:20:49;97908.97;;;12.04;55.20
79198;BME280;68628;48.714;9.472;2023-04-07T13:23:15;97916.22;;;12.23;56.65
79198;BME280;68628;48.714;9.472;2023-04-07T13:25:41;97911.09;;;11.93;57.95
79198;BME280;68628;48.714;9.472;2023-04-07T13:28:07;97915.72;;;12.13;57.91
79198;BME280;68628;48.714;9.472;2023-04-07T13:30:32;97919.75;;;12.09;58.10
79198;BME280;68628;48.714;9.472;2023-04-07T13:32:58;97914.81;;;12.27;57.91
79198;BME280;68628;48.714;9.472;2023-04-07T13:35:26;97918.03;;;12.23;58.27